Terminal Aerodrome Forecast
Issued by NWS Wilmington, OH

Current Version | Previous Version | Text Only | Print | Product List | Glossary Off
Versions: 1 2 3 4 5 6 7 8 9 10 11 12 13 14 15 16 17 18 19

000
FTUS41 KILN 271834 AAA
TAFCMH
TAF AMD
KCMH 271834Z 2719/2818 23015G22KT P6SM SCT045
      TEMPO 2719/2720 3SM -TSRA BR SCT025 BKN045CB
     FM272000 25018G25KT P6SM BKN040
     FM280000 27014G22KT P6SM FEW040
     FM280200 26006KT P6SM FEW150
     FM281200 16005KT P6SM BKN150
     FM281600 17008KT P6SM BKN100=

USA.gov is the U.S. government's official web portal to all federal, state and local government web resources and services.